Terminal Aerodrome Forecast
Issued by NWS Portland, OR

Home | Current Version | Previous Version | Text Only | Print | Product List | Glossary On
Versions: 1 2 3 4 5 6 7 8 9 10 11 12 13 14 15 16 17 18 19 20 21
000
FTUS46 KPQR 171432 AAB
TAFTTD
TAF AMD
KTTD 171432Z 1715/1812 19005KT 5SM -RA SCT015 BKN035 OVC045
     FM171800 21008KT 5SM -RA BKN020 OVC035
     FM180300 24010KT P6SM -SHRA BKN025 BKN045 BKN060
     FM180700 25006KT P6SM -SHRA OVC080=

USA.gov is the U.S. government's official web portal to all federal, state and local government web resources and services.